Time;durP1;ratioP1;P1;durP2;ratioP2;P2;SDS_P1;SDS_P2;PMS_P1;PMS_P2;Temp;Humidity;BMP_temperature;BMP_pressure;BME280_temperature;BME280_humidity;BME280_pressure;Samples;Min_cycle;Max_cycle;Signal;HPM_P1;HPM_P2
2023/02/15 00:01:39;;;;;;;70.53;29.02;;;;;;;;;;10316165;28;20509;-77
2023/02/15 00:06:40;;;;;;;69.85;30.23;;;;;;;;;;10298816;28;20032;-75
2023/02/15 00:11:40;;;;;;;61.30;30.42;;;;;;;;;;10301029;28;20034;-74
2023/02/15 00:16:41;;;;;;;66.03;28.73;;;;;;;;;;10321149;28;20019;-76
2023/02/15 00:21:42;;;;;;;66.90;29.88;;;;;;;;;;10325398;28;20022;-74
2023/02/15 00:26:43;;;;;;;65.35;29.45;;;;;;;;;;10325126;28;20017;-77
2023/02/15 00:31:43;;;;;;;74.10;30.00;;;;;;;;;;10325185;28;20018;-76
2023/02/15 00:36:43;;;;;;;63.90;28.87;;;;;;;;;;10322384;28;20109;-77
2023/02/15 00:41:44;;;;;;;69.47;27.67;;;;;;;;;;10314142;28;20061;-71
2023/02/15 00:46:44;;;;;;;67.80;29.20;;;;;;;;;;10324471;28;20184;-75
2023/02/15 00:51:45;;;;;;;63.60;29.27;;;;;;;;;;10326024;28;20042;-73
2023/02/15 00:56:45;;;;;;;65.47;28.80;;;;;;;;;;10325825;28;20030;-75
2023/02/15 01:01:45;;;;;;;66.82;29.50;;;;;;;;;;10324965;28;20268;-77
2023/02/15 01:06:45;;;;;;;61.08;27.98;;;;;;;;;;10324555;28;20544;-74
2023/02/15 01:11:46;;;;;;;61.78;29.13;;;;;;;;;;10324641;28;20412;-75
2023/02/15 01:16:46;;;;;;;63.00;29.52;;;;;;;;;;10307445;28;20026;-75
2023/02/15 01:21:46;;;;;;;58.20;26.90;;;;;;;;;;10324636;28;20010;-75
2023/02/15 01:26:46;;;;;;;64.55;28.00;;;;;;;;;;10323268;28;20581;-73
2023/02/15 01:31:47;;;;;;;61.80;26.38;;;;;;;;;;10318047;28;20037;-74
2023/02/15 01:36:48;;;;;;;62.92;27.55;;;;;;;;;;10323891;28;20023;-72
2023/02/15 01:41:48;;;;;;;76.35;29.73;;;;;;;;;;10322479;28;20026;-74
2023/02/15 01:46:51;;;;;;;64.78;27.20;;;;;;;;;;10324157;28;20121;-75
2023/02/15 01:51:52;;;;;;;63.97;27.75;;;;;;;;;;10322649;28;20050;-72
2023/02/15 01:56:54;;;;;;;56.60;26.75;;;;;;;;;;10322387;28;20022;-73
2023/02/15 02:01:55;;;;;;;61.42;28.60;;;;;;;;;;10310275;28;20027;-77
2023/02/15 02:06:56;;;;;;;63.70;28.13;;;;;;;;;;10323870;28;20019;-76
2023/02/15 02:11:57;;;;;;;55.05;26.33;;;;;;;;;;10321898;28;20034;-75
2023/02/15 02:16:57;;;;;;;59.25;26.98;;;;;;;;;;10316830;28;20409;-75
2023/02/15 02:22:10;;;;;;;62.20;27.55;;;;;;;;;;10295095;28;20026;-76
2023/02/15 02:27:30;;;;;;;60.63;26.58;;;;;;;;;;10320870;28;20026;-72
2023/02/15 02:32:33;;;;;;;59.88;26.45;;;;;;;;;;10305129;28;20547;-71
2023/02/15 02:37:44;;;;;;;57.10;27.95;;;;;;;;;;10312712;28;20101;-73
2023/02/15 02:42:48;;;;;;;65.18;28.10;;;;;;;;;;10306267;28;20022;-74
2023/02/15 02:47:52;;;;;;;57.55;25.75;;;;;;;;;;10311612;28;20698;-75
2023/02/15 02:52:53;;;;;;;59.65;24.67;;;;;;;;;;10295316;28;20524;-73
2023/02/15 02:57:55;;;;;;;58.75;27.17;;;;;;;;;;10320435;28;20022;-75
2023/02/15 03:03:22;;;;;;;58.85;25.40;;;;;;;;;;10296164;28;20031;-76
2023/02/15 03:08:27;;;;;;;56.28;24.58;;;;;;;;;;10297575;28;20129;-71
2023/02/15 03:13:28;;;;;;;55.22;26.05;;;;;;;;;;10319508;28;20030;-76
2023/02/15 03:18:32;;;;;;;47.20;23.23;;;;;;;;;;10320350;28;20026;-75
2023/02/15 03:23:32;;;;;;;54.47;25.58;;;;;;;;;;10319153;28;20113;-76
2023/02/15 03:28:45;;;;;;;56.88;24.80;;;;;;;;;;10318601;28;20078;-73
2023/02/15 03:33:55;;;;;;;46.75;21.52;;;;;;;;;;10319269;28;20486;-77
2023/02/15 03:38:59;;;;;;;54.70;24.17;;;;;;;;;;10318988;28;20030;-75
2023/02/15 03:44:11;;;;;;;55.47;25.02;;;;;;;;;;10315385;28;20088;-73
2023/02/15 03:49:15;;;;;;;51.60;23.55;;;;;;;;;;10283666;28;20413;-78
2023/02/15 03:54:38;;;;;;;48.25;22.42;;;;;;;;;;10268629;28;20049;-76
2023/02/15 04:04:57;;;;;;;50.47;24.48;;;;;;;;;;10319462;28;20034;-73
2023/02/15 04:25:54;;;;;;;50.40;22.90;;;;;;;;;;10315839;28;20034;-74
2023/02/15 04:30:54;;;;;;;52.55;24.80;;;;;;;;;;10317307;28;20026;-76
2023/02/15 04:35:55;;;;;;;52.78;24.35;;;;;;;;;;10317497;28;20121;-73
2023/02/15 04:40:55;;;;;;;47.50;24.40;;;;;;;;;;10320934;28;20030;-77
2023/02/15 04:45:55;;;;;;;47.30;22.95;;;;;;;;;;10324624;28;20036;-78
2023/02/15 04:50:55;;;;;;;54.77;25.47;;;;;;;;;;10323967;28;20088;-76
2023/02/15 04:55:56;;;;;;;53.97;24.88;;;;;;;;;;10284771;28;20047;-75
2023/02/15 05:00:56;;;;;;;50.80;24.00;;;;;;;;;;10293085;28;20026;-72
2023/02/15 05:05:59;;;;;;;50.78;25.60;;;;;;;;;;10325067;28;20109;-75
2023/02/15 05:10:59;;;;;;;49.03;24.30;;;;;;;;;;10318724;28;20505;-73
2023/02/15 05:15:59;;;;;;;52.60;23.75;;;;;;;;;;10319795;28;20026;-71
2023/02/15 05:21:00;;;;;;;44.65;22.70;;;;;;;;;;10324310;28;20037;-78
2023/02/15 05:31:19;;;;;;;53.03;24.10;;;;;;;;;;10314272;28;20122;-76
2023/02/15 05:36:19;;;;;;;59.92;26.17;;;;;;;;;;10284113;28;20027;-79
2023/02/15 05:41:20;;;;;;;56.15;24.88;;;;;;;;;;10306210;28;20031;-76
2023/02/15 05:46:20;;;;;;;46.23;22.47;;;;;;;;;;10304455;28;20026;-77
2023/02/15 05:51:20;;;;;;;52.47;23.70;;;;;;;;;;10318394;28;20034;-74
2023/02/15 05:56:20;;;;;;;53.03;22.90;;;;;;;;;;10322607;28;20153;-75
2023/02/15 06:01:22;;;;;;;57.72;25.08;;;;;;;;;;10318259;28;20574;-77
2023/02/15 06:06:22;;;;;;;56.05;23.67;;;;;;;;;;10283972;28;20069;-74
2023/02/15 06:11:23;;;;;;;53.85;24.40;;;;;;;;;;10302637;28;20026;-76
2023/02/15 06:16:23;;;;;;;51.90;24.20;;;;;;;;;;10315907;28;20021;-76
2023/02/15 06:21:23;;;;;;;56.70;25.77;;;;;;;;;;10301371;28;20025;-80
2023/02/15 06:26:24;;;;;;;47.40;23.98;;;;;;;;;;10319828;28;20022;-77
2023/02/15 06:31:24;;;;;;;51.57;21.70;;;;;;;;;;10306565;28;20019;-77
2023/02/15 06:36:24;;;;;;;43.55;21.73;;;;;;;;;;10329407;28;20029;-80
2023/02/15 06:41:24;;;;;;;45.70;21.08;;;;;;;;;;10320130;28;20037;-71
2023/02/15 06:46:25;;;;;;;43.83;19.38;;;;;;;;;;10314337;28;20493;-75
2023/02/15 06:51:25;;;;;;;46.47;19.63;;;;;;;;;;10279261;28;20445;-73
2023/02/15 06:56:25;;;;;;;40.17;19.25;;;;;;;;;;10288810;28;20136;-71
2023/02/15 07:01:26;;;;;;;39.92;19.35;;;;;;;;;;10319829;28;20080;-76
2023/02/15 07:06:30;;;;;;;38.00;18.73;;;;;;;;;;10319322;28;20180;-79
2023/02/15 07:16:49;;;;;;;33.92;16.92;;;;;;;;;;10321034;28;20023;-78
2023/02/15 07:21:49;;;;;;;35.10;17.58;;;;;;;;;;10318896;28;20353;-78
2023/02/15 07:26:50;;;;;;;31.47;16.50;;;;;;;;;;10309090;28;20037;-77
2023/02/15 07:31:50;;;;;;;30.70;15.40;;;;;;;;;;10317979;28;20477;-78
2023/02/15 07:36:50;;;;;;;36.65;16.02;;;;;;;;;;10318292;28;20110;-74
2023/02/15 07:41:51;;;;;;;38.67;15.60;;;;;;;;;;10317962;28;20019;-77
2023/02/15 07:46:51;;;;;;;32.90;15.00;;;;;;;;;;10317956;28;20046;-76
2023/02/15 07:51:51;;;;;;;38.13;16.40;;;;;;;;;;10317782;28;20133;-76
2023/02/15 07:56:51;;;;;;;46.65;16.30;;;;;;;;;;10318571;28;20508;-78
2023/02/15 08:01:53;;;;;;;31.17;15.13;;;;;;;;;;10319925;28;20905;-76
2023/02/15 08:06:54;;;;;;;41.90;16.08;;;;;;;;;;10379650;23;20050;-79
2023/02/15 08:11:55;;;;;;;49.40;17.63;;;;;;;;;;10400661;28;20068;-80
2023/02/15 08:16:56;;;;;;;36.53;16.55;;;;;;;;;;10389972;28;20029;-77
2023/02/15 08:21:58;;;;;;;39.38;17.08;;;;;;;;;;10408502;28;20052;-78
2023/02/15 08:26:59;;;;;;;45.90;16.60;;;;;;;;;;10408298;28;20056;-77
2023/02/15 08:32:02;;;;;;;34.13;17.37;;;;;;;;;;10390328;28;20018;-80
2023/02/15 08:37:02;;;;;;;28.95;14.45;;;;;;;;;;10383990;28;20264;-77
2023/02/15 08:42:03;;;;;;;45.08;15.73;;;;;;;;;;10370986;28;20029;-79
2023/02/15 08:47:03;;;;;;;36.20;16.98;;;;;;;;;;10389917;28;20076;-72
2023/02/15 08:52:03;;;;;;;29.20;15.43;;;;;;;;;;10389371;28;20385;-72
2023/02/15 08:57:04;;;;;;;36.97;15.70;;;;;;;;;;10389728;28;20468;-72
2023/02/15 09:02:04;;;;;;;30.85;15.75;;;;;;;;;;10407424;28;20030;-77
2023/02/15 09:07:04;;;;;;;38.38;15.18;;;;;;;;;;10379076;28;20046;-73
2023/02/15 09:12:04;;;;;;;26.30;14.02;;;;;;;;;;10351901;28;20017;-77
2023/02/15 09:17:05;;;;;;;34.03;14.27;;;;;;;;;;10389827;28;20509;-71
2023/02/15 09:22:06;;;;;;;30.27;14.07;;;;;;;;;;10387657;28;20271;-77
2023/02/15 09:27:06;;;;;;;31.42;15.23;;;;;;;;;;10387153;28;20629;-77
2023/02/15 09:32:07;;;;;;;33.75;14.63;;;;;;;;;;10387123;28;20213;-76
2023/02/15 09:37:07;;;;;;;31.33;15.07;;;;;;;;;;10354275;28;20018;-76
2023/02/15 09:42:34;;;;;;;32.25;14.48;;;;;;;;;;10388179;28;20103;-73
2023/02/15 09:47:54;;;;;;;34.70;14.85;;;;;;;;;;10388654;28;20578;-70
2023/02/15 09:53:10;;;;;;;33.60;14.68;;;;;;;;;;10387029;28;20028;-77
2023/02/15 09:58:19;;;;;;;36.95;13.15;;;;;;;;;;10387145;28;20136;-76
2023/02/15 10:03:38;;;;;;;22.92;13.10;;;;;;;;;;10386949;28;20944;-72
2023/02/15 10:08:39;;;;;;;24.55;13.20;;;;;;;;;;10386339;28;20045;-77
2023/02/15 10:13:44;;;;;;;18.55;11.48;;;;;;;;;;10387468;28;20112;-78
2023/02/15 10:19:03;;;;;;;25.35;13.15;;;;;;;;;;10386463;28;20504;-72
2023/02/15 10:24:33;;;;;;;22.02;11.70;;;;;;;;;;10385556;28;20108;-76
2023/02/15 10:29:48;;;;;;;23.17;12.85;;;;;;;;;;10353532;28;20223;-78
2023/02/15 10:34:52;;;;;;;21.35;12.98;;;;;;;;;;10363004;28;20641;-77
2023/02/15 10:40:07;;;;;;;29.30;15.32;;;;;;;;;;10384650;28;20020;-79
2023/02/15 10:45:08;;;;;;;24.73;14.20;;;;;;;;;;10385305;28;20033;-77
2023/02/15 10:50:08;;;;;;;29.42;14.57;;;;;;;;;;10384760;28;20017;-76
2023/02/15 10:55:08;;;;;;;23.25;12.80;;;;;;;;;;10402278;28;20451;-73
2023/02/15 11:00:09;;;;;;;21.65;12.23;;;;;;;;;;10402495;28;20483;-77
2023/02/15 11:05:18;;;;;;;21.55;12.32;;;;;;;;;;10402351;28;20050;-77
2023/02/15 11:10:37;;;;;;;27.92;14.30;;;;;;;;;;10406100;28;20112;-78
2023/02/15 11:15:59;;;;;;;24.75;13.05;;;;;;;;;;10384157;28;20033;-79
2023/02/15 11:21:19;;;;;;;26.83;15.85;;;;;;;;;;10343274;28;20049;-80
2023/02/15 11:26:32;;;;;;;26.35;15.90;;;;;;;;;;10371342;28;20079;-77
2023/02/15 11:31:43;;;;;;;23.77;13.15;;;;;;;;;;10383202;28;20071;-73
2023/02/15 11:36:44;;;;;;;24.90;14.45;;;;;;;;;;10381566;28;20107;-77
2023/02/15 11:41:49;;;;;;;23.15;13.77;;;;;;;;;;10386421;28;20492;-72
2023/02/15 11:46:50;;;;;;;23.67;14.13;;;;;;;;;;10373548;28;20047;-77
2023/02/15 11:51:51;;;;;;;24.13;13.70;;;;;;;;;;10382715;28;20091;-75
2023/02/15 11:56:52;;;;;;;26.42;13.45;;;;;;;;;;10383129;28;20021;-80
2023/02/15 12:01:52;;;;;;;38.67;17.87;;;;;;;;;;10382551;28;20035;-79
2023/02/15 12:07:22;;;;;;;31.63;17.20;;;;;;;;;;10383089;28;20058;-72
2023/02/15 12:12:24;;;;;;;45.58;17.48;;;;;;;;;;10330793;28;20095;-75
2023/02/15 12:17:27;;;;;;;39.92;19.75;;;;;;;;;;10369435;28;20061;-74
2023/02/15 12:22:29;;;;;;;36.53;19.00;;;;;;;;;;10360269;28;20022;-76
2023/02/15 12:27:30;;;;;;;40.80;20.35;;;;;;;;;;10376001;28;20024;-77
2023/02/15 12:32:34;;;;;;;39.42;19.83;;;;;;;;;;10382263;28;20116;-77
2023/02/15 12:37:35;;;;;;;40.53;20.27;;;;;;;;;;10382225;28;20039;-77
2023/02/15 12:42:43;;;;;;;39.22;19.38;;;;;;;;;;10382571;28;20021;-71
2023/02/15 12:47:43;;;;;;;40.58;18.77;;;;;;;;;;10348386;28;20038;-76
2023/02/15 12:52:45;;;;;;;46.40;21.33;;;;;;;;;;10344542;28;20108;-77
2023/02/15 12:57:46;;;;;;;40.13;19.95;;;;;;;;;;10355572;28;20414;-73
2023/02/15 13:02:47;;;;;;;55.83;21.27;;;;;;;;;;10386561;28;20514;-78
2023/02/15 13:07:53;;;;;;;39.10;19.30;;;;;;;;;;10388408;28;20036;-79
2023/02/15 13:12:56;;;;;;;43.80;20.83;;;;;;;;;;10411479;28;20415;-79
2023/02/15 13:17:57;;;;;;;46.83;20.98;;;;;;;;;;10388777;28;20234;-79
2023/02/15 13:23:04;;;;;;;41.60;21.35;;;;;;;;;;10388851;28;20031;-76
2023/02/15 13:28:05;;;;;;;38.92;20.05;;;;;;;;;;10372265;28;20017;-72
2023/02/15 13:33:09;;;;;;;39.95;20.50;;;;;;;;;;10405423;28;20052;-77
2023/02/15 13:38:16;;;;;;;48.10;22.20;;;;;;;;;;10406652;28;20515;-76
2023/02/15 13:43:16;;;;;;;45.92;22.05;;;;;;;;;;10388357;28;20527;-76
2023/02/15 13:48:20;;;;;;;43.38;22.17;;;;;;;;;;10387487;28;20025;-74
2023/02/15 13:53:20;;;;;;;43.03;21.45;;;;;;;;;;10387248;28;20021;-75
2023/02/15 13:58:39;;;;;;;48.85;22.52;;;;;;;;;;10387329;28;20025;-77
2023/02/15 14:03:58;;;;;;;53.33;20.70;;;;;;;;;;10373915;28;20121;-76
2023/02/15 14:09:17;;;;;;;41.88;20.92;;;;;;;;;;10382514;28;20127;-77
2023/02/15 14:14:39;;;;;;;38.05;19.42;;;;;;;;;;10382381;28;20022;-73
2023/02/15 14:19:49;;;;;;;44.35;19.65;;;;;;;;;;10371693;28;20475;-76
2023/02/15 14:24:52;;;;;;;42.45;20.35;;;;;;;;;;10358075;28;20023;-70
2023/02/15 14:29:53;;;;;;;46.55;21.02;;;;;;;;;;10363365;28;20109;-71
2023/02/15 14:34:57;;;;;;;47.10;21.60;;;;;;;;;;10372619;28;20408;-79
2023/02/15 14:45:42;;;;;;;46.63;22.27;;;;;;;;;;10374480;28;20139;-76
2023/02/15 14:50:44;;;;;;;42.28;20.42;;;;;;;;;;10360354;28;20025;-73
2023/02/15 14:55:44;;;;;;;55.67;24.73;;;;;;;;;;10380355;28;20025;-79
2023/02/15 15:00:44;;;;;;;44.50;21.53;;;;;;;;;;10370089;28;20415;-74
2023/02/15 15:05:49;;;;;;;50.65;22.33;;;;;;;;;;10373003;28;20045;-71
2023/02/15 15:10:49;;;;;;;42.95;22.38;;;;;;;;;;10356928;28;20072;-81
2023/02/15 15:15:52;;;;;;;46.57;22.50;;;;;;;;;;10366616;28;20083;-77
2023/02/15 15:20:53;;;;;;;41.15;20.70;;;;;;;;;;10359916;28;20116;-76
2023/02/15 15:26:16;;;;;;;48.08;24.85;;;;;;;;;;10356238;28;20048;-76
2023/02/15 15:31:23;;;;;;;45.78;22.00;;;;;;;;;;10357355;28;20041;-77
2023/02/15 15:36:23;;;;;;;48.80;23.55;;;;;;;;;;10370698;28;20454;-77
2023/02/15 15:41:27;;;;;;;59.35;24.17;;;;;;;;;;10373458;28;20041;-72
2023/02/15 15:46:47;;;;;;;45.92;22.65;;;;;;;;;;10371691;28;20033;-78
2023/02/15 15:51:48;;;;;;;50.15;24.30;;;;;;;;;;10400666;28;20029;-80
2023/02/15 15:56:51;;;;;;;46.80;23.90;;;;;;;;;;10383020;28;20021;-77
2023/02/15 16:01:52;;;;;;;49.42;23.38;;;;;;;;;;10401102;28;20037;-77
2023/02/15 16:06:52;;;;;;;46.03;20.40;;;;;;;;;;10382811;28;20435;-80
2023/02/15 16:11:54;;;;;;;52.72;24.10;;;;;;;;;;10383061;28;20483;-71
2023/02/15 16:16:56;;;;;;;55.13;24.33;;;;;;;;;;10363089;28;20025;-76
2023/02/15 16:21:57;;;;;;;59.88;25.02;;;;;;;;;;10400259;28;20037;-77
2023/02/15 16:27:04;;;;;;;53.70;24.17;;;;;;;;;;10365926;28;20040;-70
2023/02/15 16:32:05;;;;;;;58.47;25.77;;;;;;;;;;10382622;28;20036;-74
2023/02/15 16:37:13;;;;;;;55.67;24.92;;;;;;;;;;10405215;28;20026;-72
2023/02/15 16:42:14;;;;;;;61.85;27.27;;;;;;;;;;10406147;28;20021;-75
2023/02/15 16:47:17;;;;;;;63.25;28.90;;;;;;;;;;10388861;28;20544;-71
2023/02/15 16:52:25;;;;;;;64.60;27.52;;;;;;;;;;10373205;28;20387;-78
2023/02/15 16:57:31;;;;;;;64.17;29.60;;;;;;;;;;10388743;28;20018;-73
2023/02/15 17:02:32;;;;;;;64.78;30.38;;;;;;;;;;10388799;28;20037;-74
2023/02/15 17:07:33;;;;;;;72.68;31.10;;;;;;;;;;10388195;28;20119;-73
2023/02/15 17:12:42;;;;;;;65.97;28.52;;;;;;;;;;10363708;28;20065;-75
2023/02/15 17:17:42;;;;;;;65.13;24.88;;;;;;;;;;10372501;28;20025;-77
2023/02/15 17:22:43;;;;;;;60.10;25.17;;;;;;;;;;10377579;28;20519;-76
2023/02/15 17:27:43;;;;;;;62.37;27.13;;;;;;;;;;10370596;28;20028;-74
2023/02/15 17:33:00;;;;;;;59.90;27.95;;;;;;;;;;10357653;28;20037;-75
2023/02/15 17:38:06;;;;;;;61.65;28.25;;;;;;;;;;10350339;28;20501;-73
2023/02/15 17:43:06;;;;;;;58.00;26.00;;;;;;;;;;10344437;28;20030;-74
2023/02/15 17:48:20;;;;;;;58.45;25.60;;;;;;;;;;10366785;28;20034;-75
2023/02/15 17:53:20;;;;;;;62.53;26.65;;;;;;;;;;10369514;28;20500;-76
2023/02/15 17:58:24;;;;;;;58.20;24.40;;;;;;;;;;10348176;28;20018;-71
2023/02/15 18:14:07;;;;;;;62.53;24.63;;;;;;;;;;10385054;28;20574;-76
2023/02/15 18:19:18;;;;;;;59.08;25.50;;;;;;;;;;10375504;28;20424;-75
2023/02/15 18:24:19;;;;;;;54.53;25.73;;;;;;;;;;10373790;28;20022;-77
2023/02/15 18:29:21;;;;;;;73.63;29.67;;;;;;;;;;10386968;28;20124;-75
2023/02/15 18:34:23;;;;;;;54.20;23.95;;;;;;;;;;10364733;28;20822;-71
2023/02/15 18:39:27;;;;;;;58.38;26.05;;;;;;;;;;10384050;28;20029;-73
2023/02/15 18:44:27;;;;;;;64.40;28.25;;;;;;;;;;10370609;28;20075;-76
2023/02/15 18:49:27;;;;;;;65.57;27.10;;;;;;;;;;10375463;28;20036;-74
2023/02/15 18:54:27;;;;;;;74.03;27.15;;;;;;;;;;10385806;28;20037;-74
2023/02/15 18:59:30;;;;;;;67.67;27.97;;;;;;;;;;10383343;28;20069;-72
2023/02/15 19:04:31;;;;;;;77.05;26.08;;;;;;;;;;10361830;28;20145;-75
2023/02/15 19:09:31;;;;;;;73.53;30.63;;;;;;;;;;10384075;28;20025;-73
2023/02/15 19:14:32;;;;;;;73.20;31.45;;;;;;;;;;10367133;28;20018;-73
2023/02/15 19:19:32;;;;;;;76.47;30.85;;;;;;;;;;10369758;28;20072;-73
2023/02/15 19:24:39;;;;;;;77.77;29.73;;;;;;;;;;10365823;28;20036;-76
2023/02/15 19:29:39;;;;;;;70.03;28.73;;;;;;;;;;10372320;28;20039;-74
2023/02/15 19:34:42;;;;;;;70.43;31.80;;;;;;;;;;10383711;28;20013;-80
2023/02/15 19:39:43;;;;;;;71.63;28.95;;;;;;;;;;10351778;28;20515;-74
2023/02/15 19:44:43;;;;;;;70.22;28.45;;;;;;;;;;10357422;28;20033;-70
2023/02/15 19:49:43;;;;;;;75.82;31.88;;;;;;;;;;10362016;28;20037;-75
2023/02/15 19:54:44;;;;;;;70.50;30.13;;;;;;;;;;10369871;28;20021;-80
2023/02/15 19:59:44;;;;;;;68.05;29.38;;;;;;;;;;10359023;28;20039;-71
2023/02/15 20:04:44;;;;;;;74.18;30.67;;;;;;;;;;10369282;28;20062;-75
2023/02/15 20:09:45;;;;;;;73.68;30.17;;;;;;;;;;10368361;28;20032;-74
2023/02/15 20:14:45;;;;;;;74.82;33.60;;;;;;;;;;10379177;28;20021;-77
2023/02/15 20:19:45;;;;;;;79.60;32.97;;;;;;;;;;10387933;28;20041;-75
2023/02/15 20:24:46;;;;;;;82.95;32.95;;;;;;;;;;10380612;28;20087;-78
2023/02/15 20:29:46;;;;;;;79.25;33.75;;;;;;;;;;10366981;28;20030;-74
2023/02/15 20:34:46;;;;;;;78.20;32.80;;;;;;;;;;10367162;28;20021;-77
2023/02/15 20:39:46;;;;;;;81.55;30.85;;;;;;;;;;10375709;28;20412;-76
2023/02/15 20:44:47;;;;;;;78.80;32.15;;;;;;;;;;10368295;28;20438;-74
2023/02/15 20:49:47;;;;;;;71.90;30.75;;;;;;;;;;10383119;28;20036;-71
2023/02/15 20:54:47;;;;;;;80.23;33.97;;;;;;;;;;10378206;28;20053;-71
2023/02/15 20:59:47;;;;;;;87.45;35.22;;;;;;;;;;10380847;28;20203;-76
2023/02/15 21:04:48;;;;;;;81.35;33.47;;;;;;;;;;10387070;28;20484;-73
2023/02/15 21:09:49;;;;;;;87.55;33.42;;;;;;;;;;10377527;28;20030;-75
2023/02/15 21:14:49;;;;;;;84.43;34.37;;;;;;;;;;10358529;28;20029;-75
2023/02/15 21:19:49;;;;;;;80.47;35.85;;;;;;;;;;10372079;28;20029;-74
2023/02/15 21:24:50;;;;;;;104.67;42.83;;;;;;;;;;10372692;28;20188;-75
2023/02/15 21:29:51;;;;;;;100.57;42.83;;;;;;;;;;10367526;28;20030;-74
2023/02/15 21:34:51;;;;;;;101.90;43.83;;;;;;;;;;10365574;28;20022;-75
2023/02/15 21:39:51;;;;;;;104.40;42.20;;;;;;;;;;10375033;28;20078;-71
2023/02/15 21:55:31;;;;;;;85.00;35.92;;;;;;;;;;10404437;28;20029;-76
2023/02/15 22:00:32;;;;;;;73.93;29.55;;;;;;;;;;10378691;28;20033;-78
2023/02/15 22:05:32;;;;;;;58.55;27.33;;;;;;;;;;10368511;28;20095;-71
2023/02/15 22:10:33;;;;;;;70.72;27.77;;;;;;;;;;10404389;28;20034;-75
2023/02/15 22:15:34;;;;;;;74.05;29.13;;;;;;;;;;10385846;28;20025;-71
2023/02/15 22:20:35;;;;;;;63.88;27.58;;;;;;;;;;10386509;28;20464;-80
2023/02/15 22:25:35;;;;;;;74.55;33.17;;;;;;;;;;10386716;28;20044;-79
2023/02/15 22:30:36;;;;;;;78.63;32.22;;;;;;;;;;10386134;28;20033;-71
2023/02/15 22:35:36;;;;;;;78.55;32.55;;;;;;;;;;10403686;28;20033;-81
2023/02/15 22:40:36;;;;;;;69.77;32.20;;;;;;;;;;10384777;28;20483;-77
2023/02/15 22:45:37;;;;;;;77.30;33.65;;;;;;;;;;10365583;28;20468;-71
2023/02/15 22:50:37;;;;;;;87.78;36.55;;;;;;;;;;10396138;28;20463;-74
2023/02/15 22:55:37;;;;;;;83.85;34.28;;;;;;;;;;10344837;28;20403;-72
2023/02/15 23:00:39;;;;;;;81.20;35.55;;;;;;;;;;10359769;28;20036;-80
2023/02/15 23:05:39;;;;;;;84.82;37.20;;;;;;;;;;10376560;28;20603;-71
2023/02/15 23:10:40;;;;;;;83.43;34.30;;;;;;;;;;10382813;28;20032;-77
2023/02/15 23:15:41;;;;;;;91.47;38.05;;;;;;;;;;10381910;28;20092;-80
2023/02/15 23:20:41;;;;;;;77.90;34.72;;;;;;;;;;10380664;28;20013;-76
2023/02/15 23:25:42;;;;;;;87.90;37.22;;;;;;;;;;10381906;28;20018;-77
2023/02/15 23:30:42;;;;;;;80.07;35.13;;;;;;;;;;10378845;28;20021;-76
2023/02/15 23:35:42;;;;;;;88.57;38.17;;;;;;;;;;10383626;28;20021;-71
2023/02/15 23:46:05;;;;;;;78.72;36.00;;;;;;;;;;10401410;28;20496;-79
2023/02/15 23:51:05;;;;;;;74.95;32.63;;;;;;;;;;10383876;28;20046;-70
2023/02/15 23:56:06;;;;;;;82.57;35.63;;;;;;;;;;10401090;28;20025;-78
